Time;durP1;ratioP1;P1;durP2;ratioP2;P2;SDS_P1;SDS_P2;PMS_P1;PMS_P2;Temp;Humidity;BMP_temperature;BMP_pressure;BME280_temperature;BME280_humidity;BME280_pressure;Samples;Min_cycle;Max_cycle;Signal;HPM_P1;HPM_P2
2024/01/22 00:01:39;;;;;;;17.48;5.18;;;;;;;7.91;100.00;100801.72;5085408;28;20028;-79
2024/01/22 00:04:04;;;;;;;16.85;5.40;;;;;;;7.90;100.00;100782.38;5082368;28;20039;-81
2024/01/22 00:06:30;;;;;;;17.95;5.15;;;;;;;7.94;100.00;100768.41;5085371;28;20028;-77
2024/01/22 00:08:56;;;;;;;16.30;4.68;;;;;;;7.97;100.00;100744.75;5082878;28;20084;-81
2024/01/22 00:11:21;;;;;;;17.92;5.10;;;;;;;7.74;100.00;100776.00;5084069;28;20031;-78
2024/01/22 00:13:46;;;;;;;17.65;5.32;;;;;;;7.45;100.00;100754.53;5083328;28;20032;-82
2024/01/22 00:16:12;;;;;;;18.63;5.55;;;;;;;7.45;100.00;100755.41;5065059;28;20036;-82
2024/01/22 00:18:38;;;;;;;16.10;5.22;;;;;;;7.45;100.00;100758.03;5085969;28;20040;-83
2024/01/22 00:21:04;;;;;;;17.13;5.40;;;;;;;7.55;100.00;100808.19;5082309;28;20111;-81
2024/01/22 00:23:29;;;;;;;18.15;5.35;;;;;;;7.55;100.00;100771.34;5086167;28;20032;-80
2024/01/22 00:25:55;;;;;;;16.98;5.10;;;;;;;7.55;100.00;100764.31;5083410;28;20066;-77
2024/01/22 00:28:20;;;;;;;16.55;5.13;;;;;;;7.65;100.00;100742.56;5083939;28;20396;-72
2024/01/22 00:30:45;;;;;;;16.77;5.20;;;;;;;7.73;100.00;100736.53;5084378;28;20118;-80
2024/01/22 00:33:11;;;;;;;17.77;5.30;;;;;;;7.65;100.00;100739.06;5082746;28;20033;-78
2024/01/22 00:35:36;;;;;;;17.02;5.13;;;;;;;7.71;100.00;100718.09;5084170;28;20053;-81
2024/01/22 00:38:01;;;;;;;16.67;5.20;;;;;;;7.84;100.00;100705.97;5082216;28;20036;-79
2024/01/22 00:40:27;;;;;;;17.85;5.15;;;;;;;7.90;100.00;100720.97;5084945;28;20032;-80
2024/01/22 00:42:52;;;;;;;15.00;4.60;;;;;;;8.00;100.00;100665.81;5083270;28;20039;-81
2024/01/22 00:45:18;;;;;;;16.58;4.60;;;;;;;8.07;100.00;100682.59;5083397;28;20040;-81
2024/01/22 00:47:43;;;;;;;18.58;4.93;;;;;;;8.10;100.00;100700.19;5084240;28;20028;-81
2024/01/22 00:50:09;;;;;;;14.88;4.20;;;;;;;8.19;100.00;100700.28;5082005;28;20028;-80
2024/01/22 00:52:34;;;;;;;15.40;4.72;;;;;;;8.24;100.00;100693.28;5083736;28;20024;-72
2024/01/22 00:55:00;;;;;;;15.82;4.40;;;;;;;8.26;100.00;100661.75;5081390;28;20107;-72
2024/01/22 00:57:25;;;;;;;14.70;4.40;;;;;;;8.31;100.00;100679.34;5082024;28;20399;-70
2024/01/22 00:59:50;;;;;;;16.33;4.45;;;;;;;8.30;100.00;100687.22;5082069;28;20036;-71
2024/01/22 01:02:16;;;;;;;15.13;4.57;;;;;;;8.33;100.00;100692.50;5083747;28;20028;-71
2024/01/22 01:04:41;;;;;;;12.63;4.10;;;;;;;8.36;100.00;100664.47;5082045;28;20044;-72
2024/01/22 01:07:07;;;;;;;15.80;4.50;;;;;;;8.42;100.00;100691.72;5084812;28;20364;-71
2024/01/22 01:09:32;;;;;;;15.30;4.50;;;;;;;8.49;100.00;100675.16;5081519;28;20068;-79
2024/01/22 01:11:57;;;;;;;13.65;4.20;;;;;;;8.51;100.00;100679.59;5084403;28;20038;-75
2024/01/22 01:14:24;;;;;;;14.52;4.30;;;;;;;8.51;100.00;100673.44;5082949;28;20031;-78
2024/01/22 01:16:50;;;;;;;14.10;4.22;;;;;;;8.57;100.00;100649.78;5083079;28;20029;-79
2024/01/22 01:19:15;;;;;;;12.45;3.80;;;;;;;8.66;100.00;100655.13;5084021;28;20074;-79
2024/01/22 01:21:40;;;;;;;14.00;4.00;;;;;;;8.63;100.00;100641.91;5080591;28;20387;-77
2024/01/22 01:24:07;;;;;;;13.95;4.00;;;;;;;8.67;100.00;100614.72;5085135;28;20081;-78
2024/01/22 01:26:33;;;;;;;13.18;4.00;;;;;;;8.71;100.00;100632.34;5081448;28;20425;-75
2024/01/22 01:28:58;;;;;;;13.13;3.85;;;;;;;8.80;100.00;100643.84;5083745;28;20089;-79
2024/01/22 01:31:28;;;;;;;13.20;3.90;;;;;;;8.84;100.00;100642.97;5082295;28;20064;-77
2024/01/22 01:33:53;;;;;;;13.73;3.92;;;;;;;8.75;100.00;100616.56;5083353;28;20061;-77
2024/01/22 01:36:19;;;;;;;15.07;4.13;;;;;;;8.73;100.00;100629.72;5082654;28;20028;-79
2024/01/22 01:38:44;;;;;;;12.88;3.70;;;;;;;8.78;100.00;100613.94;5081873;28;20107;-81
2024/01/22 01:41:10;;;;;;;12.68;3.70;;;;;;;8.84;100.00;100627.16;5082822;28;20036;-78
2024/01/22 01:43:35;;;;;;;12.88;3.90;;;;;;;8.82;100.00;100610.47;5080907;28;20098;-77
2024/01/22 01:46:01;;;;;;;13.75;3.90;;;;;;;8.79;100.00;100678.97;5083928;28;20056;-76
2024/01/22 01:48:27;;;;;;;12.95;3.95;;;;;;;8.84;100.00;100617.53;5081556;28;20036;-77
2024/01/22 01:50:54;;;;;;;12.27;3.90;;;;;;;8.91;100.00;100586.78;5082913;28;20032;-70
2024/01/22 01:53:20;;;;;;;10.73;3.55;;;;;;;8.93;100.00;100569.25;5082630;28;20028;-79
2024/01/22 01:55:46;;;;;;;11.70;3.60;;;;;;;8.95;100.00;100616.72;5081648;28;20119;-77
2024/01/22 01:58:13;;;;;;;12.07;3.80;;;;;;;8.90;100.00;100570.09;5083525;28;20024;-77
2024/01/22 02:00:39;;;;;;;9.88;3.40;;;;;;;8.85;100.00;100599.94;5079519;28;20487;-79
2024/01/22 02:03:04;;;;;;;11.82;3.80;;;;;;;8.89;100.00;100599.09;5083894;28;20028;-80
2024/01/22 02:05:30;;;;;;;11.02;3.50;;;;;;;8.92;100.00;100595.59;5079836;28;20033;-78
2024/01/22 02:07:55;;;;;;;11.93;3.38;;;;;;;8.98;100.00;100583.34;5086690;28;20138;-77
2024/01/22 02:10:20;;;;;;;10.80;3.40;;;;;;;8.94;100.00;100555.22;5085920;28;20048;-81
2024/01/22 02:12:46;;;;;;;10.90;3.50;;;;;;;8.99;100.00;100573.69;5085219;28;20037;-79
2024/01/22 02:15:11;;;;;;;11.63;3.58;;;;;;;8.97;100.00;100555.22;5086564;28;20063;-79
2024/01/22 02:17:36;;;;;;;10.80;3.60;;;;;;;8.97;100.00;100581.59;5084158;28;20502;-80
2024/01/22 02:20:02;;;;;;;11.68;3.55;;;;;;;9.02;100.00;100534.16;5085944;28;20084;-79
2024/01/22 02:22:28;;;;;;;9.55;3.42;;;;;;;8.95;100.00;100530.59;5084934;28;20483;-79
2024/01/22 02:24:53;;;;;;;10.98;3.30;;;;;;;9.04;100.00;100535.03;5086172;28;20028;-79
2024/01/22 02:27:21;;;;;;;12.00;3.58;;;;;;;9.03;100.00;100542.06;5086457;28;20036;-80
2024/01/22 02:29:46;;;;;;;10.30;3.33;;;;;;;9.08;100.00;100532.41;5085259;28;20064;-80
2024/01/22 02:32:11;;;;;;;10.20;3.53;;;;;;;9.14;100.00;100514.88;5086841;28;20074;-74
2024/01/22 02:34:37;;;;;;;10.90;3.30;;;;;;;9.10;100.00;100521.91;5084396;28;20033;-77
2024/01/22 02:37:03;;;;;;;9.95;3.33;;;;;;;9.08;100.00;100521.88;5087435;28;20050;-82
2024/01/22 02:39:29;;;;;;;12.77;3.53;;;;;;;8.97;100.00;100497.22;5084385;28;20031;-81
2024/01/22 02:41:55;;;;;;;12.80;3.63;;;;;;;8.61;100.00;100495.25;5086206;28;20095;-81
2024/01/22 02:44:20;;;;;;;11.23;3.60;;;;;;;8.39;100.00;100484.50;5085514;28;20078;-81
2024/01/22 02:46:46;;;;;;;13.55;3.70;;;;;;;8.27;100.00;100503.75;5084424;28;20040;-77
2024/01/22 02:49:12;;;;;;;12.15;3.75;;;;;;;8.26;100.00;100437.91;5086936;28;20062;-77
2024/01/22 02:51:37;;;;;;;11.25;3.65;;;;;;;8.26;100.00;100469.50;5083467;28;20053;-81
2024/01/22 02:54:06;;;;;;;12.25;3.70;;;;;;;8.31;100.00;100473.03;5086788;28;20032;-77
2024/01/22 02:56:31;;;;;;;11.68;3.50;;;;;;;8.31;100.00;100452.81;5084135;28;20406;-77
2024/01/22 02:58:57;;;;;;;12.52;3.63;;;;;;;8.32;100.00;100454.59;5085792;28;20025;-81
2024/01/22 03:01:22;;;;;;;13.43;3.72;;;;;;;8.25;100.00;100454.56;5085031;28;20157;-77
2024/01/22 03:03:47;;;;;;;11.85;3.60;;;;;;;8.15;100.00;100465.00;5084614;28;20028;-77
2024/01/22 03:06:13;;;;;;;11.40;3.63;;;;;;;8.12;100.00;100445.66;5086409;28;20367;-76
2024/01/22 03:08:38;;;;;;;12.15;3.83;;;;;;;8.05;100.00;100431.56;5083151;28;20048;-79
2024/01/22 03:11:04;;;;;;;13.27;3.88;;;;;;;8.06;100.00;100429.84;5086503;28;20123;-75
2024/01/22 03:13:29;;;;;;;14.23;4.07;;;;;;;8.03;100.00;100431.56;5083764;28;20583;-77
2024/01/22 03:15:55;;;;;;;12.88;3.65;;;;;;;8.10;100.00;100416.69;5085486;28;20024;-73
2024/01/22 03:18:20;;;;;;;12.60;4.18;;;;;;;8.10;100.00;100410.56;5084528;28;20028;-73
2024/01/22 03:20:45;;;;;;;13.63;3.80;;;;;;;8.13;100.00;100410.59;5083763;28;20025;-77
2024/01/22 03:23:11;;;;;;;12.63;4.07;;;;;;;8.07;100.00;100410.50;5086325;28;20482;-73
2024/01/22 03:25:36;;;;;;;12.50;4.00;;;;;;;8.12;100.00;100435.13;5081640;28;20494;-84
2024/01/22 03:28:01;;;;;;;13.95;4.10;;;;;;;8.20;100.00;100423.78;5084617;28;20378;-75
2024/01/22 03:30:27;;;;;;;11.02;3.65;;;;;;;8.19;100.00;100402.72;5084012;28;20020;-72
2024/01/22 03:32:53;;;;;;;11.70;3.65;;;;;;;8.26;100.00;100417.69;5083266;28;20032;-82
2024/01/22 03:35:20;;;;;;;11.63;3.90;;;;;;;8.23;100.00;100415.03;5085087;28;20028;-75
2024/01/22 03:37:46;;;;;;;12.77;3.85;;;;;;;8.22;100.00;100389.56;5082458;28;20487;-75
2024/01/22 03:40:11;;;;;;;11.57;4.10;;;;;;;8.23;100.00;100396.59;5086092;28;20035;-71
2024/01/22 03:42:37;;;;;;;12.05;3.45;;;;;;;8.26;100.00;100401.91;5082501;28;20021;-72
2024/01/22 03:45:03;;;;;;;13.20;3.90;;;;;;;8.35;100.00;100428.28;5085753;28;20035;-71
2024/01/22 03:47:28;;;;;;;7.97;3.30;;;;;;;8.38;100.00;100401.97;5083171;28;20028;-74
2024/01/22 03:49:53;;;;;;;9.88;3.50;;;;;;;8.40;100.00;100393.19;5084288;28;20031;-76
2024/01/22 03:52:19;;;;;;;11.73;3.70;;;;;;;8.40;100.00;100378.25;5084873;28;20027;-77
2024/01/22 03:54:44;;;;;;;10.30;3.40;;;;;;;8.40;100.00;100393.19;5082882;28;20055;-78
2024/01/22 03:57:09;;;;;;;9.60;3.58;;;;;;;8.49;100.00;100383.63;5085889;28;20032;-76
2024/01/22 03:59:36;;;;;;;10.70;3.50;;;;;;;8.52;100.00;100386.28;5078061;28;20032;-74
2024/01/22 04:02:02;;;;;;;11.55;3.50;;;;;;;8.60;100.00;100380.19;5085159;28;20492;-72
2024/01/22 04:04:27;;;;;;;9.90;3.35;;;;;;;8.61;100.00;100369.63;5083575;28;20058;-74
2024/01/22 04:06:52;;;;;;;9.45;3.30;;;;;;;8.57;100.00;100388.94;5083569;28;20123;-75
2024/01/22 04:09:18;;;;;;;10.65;3.30;;;;;;;8.68;100.00;100384.59;5084300;28;20153;-72
2024/01/22 04:11:43;;;;;;;12.25;3.33;;;;;;;8.60;100.00;100367.88;5081388;28;20033;-80
2024/01/22 04:14:08;;;;;;;8.82;3.30;;;;;;;8.62;100.00;100391.59;5084185;28;20417;-80
2024/01/22 04:16:34;;;;;;;8.55;3.30;;;;;;;8.62;100.00;100394.22;5081929;28;20032;-82
2024/01/22 04:18:59;;;;;;;8.45;3.25;;;;;;;8.69;100.00;100382.84;5084776;28;20036;-84
2024/01/22 04:21:24;;;;;;;9.35;3.50;;;;;;;8.66;100.00;100364.38;5083452;28;20043;-74
2024/01/22 04:23:50;;;;;;;10.38;3.22;;;;;;;8.67;100.00;100353.84;5082986;28;20028;-85
2024/01/22 04:26:15;;;;;;;11.07;3.33;;;;;;;8.65;100.00;100371.41;5084464;28;20028;-84
2024/01/22 04:28:40;;;;;;;9.23;3.38;;;;;;;8.68;100.00;100352.13;5081895;28;20166;-81
2024/01/22 04:31:06;;;;;;;9.98;3.30;;;;;;;8.71;100.00;100366.16;5084685;28;20070;-78
2024/01/22 04:33:32;;;;;;;10.18;3.20;;;;;;;8.76;100.00;100374.09;5080859;28;20028;-74
2024/01/22 04:35:58;;;;;;;7.70;2.90;;;;;;;8.81;100.00;100363.56;5082833;28;20035;-71
2024/01/22 04:38:23;;;;;;;8.07;3.00;;;;;;;8.92;100.00;100382.94;5083248;28;20028;-85
2024/01/22 04:40:49;;;;;;;9.30;3.00;;;;;;;8.89;100.00;100361.84;5082646;28;20528;-82
2024/01/22 04:43:15;;;;;;;10.70;2.85;;;;;;;8.94;100.00;100354.84;5084260;28;20028;-85
2024/01/22 04:45:41;;;;;;;10.57;3.03;;;;;;;8.90;100.00;100360.97;5081684;28;20036;-79
2024/01/22 04:48:06;;;;;;;8.65;2.90;;;;;;;8.95;100.00;100377.69;5083583;28;20495;-79
2024/01/22 04:50:32;;;;;;;9.07;2.97;;;;;;;9.03;100.00;100369.81;5081759;28;20472;-79
2024/01/22 04:52:57;;;;;;;7.53;2.90;;;;;;;9.10;100.00;100362.78;5084041;28;20036;-78
2024/01/22 04:55:23;;;;;;;8.68;2.58;;;;;;;9.22;100.00;100378.66;5081808;28;20097;-79
2024/01/22 04:57:48;;;;;;;9.10;2.63;;;;;;;9.23;100.00;100354.94;5082244;28;20028;-72
2024/01/22 05:00:14;;;;;;;9.93;2.88;;;;;;;9.25;100.00;100349.66;5084361;28;20035;-71
2024/01/22 05:02:40;;;;;;;8.23;2.60;;;;;;;9.24;100.00;100342.59;5079796;28;20032;-72
2024/01/22 05:05:06;;;;;;;10.93;2.72;;;;;;;9.24;100.00;100353.16;5079878;28;20020;-72
2024/01/22 05:07:31;;;;;;;8.95;2.83;;;;;;;9.34;100.00;100362.84;5084051;28;20032;-74
2024/01/22 05:09:59;;;;;;;7.43;2.70;;;;;;;9.43;100.00;100370.75;5082110;28;20127;-71
2024/01/22 05:12:25;;;;;;;5.97;2.50;;;;;;;9.47;100.00;100361.09;5083183;28;20020;-74
2024/01/22 05:14:51;;;;;;;10.23;2.80;;;;;;;9.39;100.00;100352.28;5083347;28;20032;-75
2024/01/22 05:17:17;;;;;;;8.20;2.70;;;;;;;9.45;100.00;100347.06;5081753;28;20029;-74
2024/01/22 05:19:42;;;;;;;11.90;2.90;;;;;;;9.36;100.00;100332.09;5084415;28;20036;-72
2024/01/22 05:22:08;;;;;;;9.27;3.00;;;;;;;9.41;100.00;100340.88;5081082;28;20450;-73
2024/01/22 05:24:33;;;;;;;6.38;2.75;;;;;;;9.37;100.00;100349.66;5084099;28;20451;-75
2024/01/22 05:26:59;;;;;;;7.93;2.80;;;;;;;9.44;100.00;100353.19;5081951;28;20028;-74
2024/01/22 05:29:25;;;;;;;9.07;2.83;;;;;;;9.53;100.00;100360.25;5082896;28;20391;-74
2024/01/22 05:31:50;;;;;;;9.82;3.00;;;;;;;9.55;100.00;100353.19;5082832;28;20063;-73
2024/01/22 05:34:16;;;;;;;8.27;2.90;;;;;;;9.50;100.00;100345.28;5081637;28;20104;-75
2024/01/22 05:36:42;;;;;;;9.40;2.80;;;;;;;9.49;100.00;100343.50;5084055;28;20115;-71
2024/01/22 05:39:08;;;;;;;8.52;2.90;;;;;;;9.49;100.00;100363.75;5080779;28;20137;-72
2024/01/22 05:41:34;;;;;;;6.47;2.60;;;;;;;9.51;100.00;100338.22;5086139;28;20093;-79
2024/01/22 05:43:59;;;;;;;7.88;2.80;;;;;;;9.46;100.00;100347.91;5085910;28;20532;-75
2024/01/22 05:46:26;;;;;;;9.52;2.90;;;;;;;9.47;100.00;100368.16;5086565;28;20025;-71
2024/01/22 05:48:51;;;;;;;10.18;3.00;;;;;;;9.50;100.00;100354.97;5086873;28;20028;-77
2024/01/22 05:51:17;;;;;;;8.98;2.78;;;;;;;9.52;100.00;100353.19;5085421;28;20444;-73
2024/01/22 05:53:42;;;;;;;8.38;2.78;;;;;;;9.45;100.00;100362.88;5087987;28;20032;-72
2024/01/22 05:56:08;;;;;;;8.52;2.90;;;;;;;9.49;100.00;100371.66;5084858;28;20433;-74
2024/01/22 05:58:33;;;;;;;11.20;3.20;;;;;;;9.46;100.00;100380.44;5086518;28;20054;-74
2024/01/22 06:00:59;;;;;;;9.07;3.05;;;;;;;9.40;100.00;100365.47;5067710;28;20081;-85
2024/01/22 06:03:24;;;;;;;10.45;3.10;;;;;;;9.40;100.00;100362.84;5086512;28;20395;-85
2024/01/22 06:05:49;;;;;;;9.30;3.03;;;;;;;9.40;100.00;100378.69;5086569;28;20036;-76
2024/01/22 06:08:15;;;;;;;11.60;3.30;;;;;;;9.39;100.00;100376.03;5083664;28;20086;-86
2024/01/22 06:10:40;;;;;;;11.52;3.30;;;;;;;9.40;100.00;100391.88;5087721;28;20051;-83
2024/01/22 06:13:05;;;;;;;10.60;3.20;;;;;;;9.43;100.00;100398.91;5084301;28;20016;-83
2024/01/22 06:15:31;;;;;;;11.15;3.40;;;;;;;9.39;100.00;100394.50;5087278;28;20115;-86
2024/01/22 06:17:56;;;;;;;12.05;3.45;;;;;;;9.40;100.00;100383.94;5085668;28;20056;-86
2024/01/22 06:20:22;;;;;;;11.07;3.28;;;;;;;9.37;100.00;100373.41;5085767;28;20047;-85
2024/01/22 06:22:47;;;;;;;12.15;3.60;;;;;;;9.38;100.00;100367.25;5087033;28;20106;-86
2024/01/22 06:25:12;;;;;;;10.40;3.40;;;;;;;9.36;100.00;100379.56;5084693;28;20035;-76
2024/01/22 06:27:38;;;;;;;12.38;3.53;;;;;;;9.39;100.00;100362.84;5088162;28;20460;-75
2024/01/22 06:30:04;;;;;;;11.40;3.50;;;;;;;9.39;100.00;100368.13;5085645;28;20074;-86
2024/01/22 06:32:29;;;;;;;11.57;3.53;;;;;;;9.40;100.00;100381.31;5085549;28;20074;-87
2024/01/22 06:34:55;;;;;;;12.27;3.50;;;;;;;9.41;100.00;100382.22;5084623;28;20027;-75
2024/01/22 06:37:26;;;;;;;9.98;3.33;;;;;;;9.43;100.00;100378.69;5085510;28;20521;-83
2024/01/22 06:39:52;;;;;;;12.15;3.60;;;;;;;9.45;100.00;100372.53;5086295;28;20034;-73
2024/01/22 06:42:17;;;;;;;10.35;3.20;;;;;;;9.42;100.00;100371.66;5084775;28;20127;-74
2024/01/22 06:47:14;;;;;;;9.00;3.10;;;;;;;9.44;100.00;100390.13;5084235;28;20024;-77
2024/01/22 06:49:39;;;;;;;8.82;2.70;;;;;;;9.49;100.00;100395.41;5080462;28;20052;-78
2024/01/22 06:52:05;;;;;;;9.38;2.95;;;;;;;9.49;100.00;100413.88;5087081;28;20475;-76
2024/01/22 06:54:30;;;;;;;7.38;2.83;;;;;;;9.47;100.00;100405.09;5084440;28;20032;-73
2024/01/22 06:56:56;;;;;;;9.32;3.00;;;;;;;9.54;100.00;100393.66;5086035;28;20102;-73
2024/01/22 06:59:21;;;;;;;6.97;2.83;;;;;;;9.49;100.00;100419.16;5086628;28;20050;-77
2024/01/22 07:01:47;;;;;;;8.23;2.90;;;;;;;9.47;100.00;100408.59;5083287;28;20538;-76
2024/01/22 07:04:12;;;;;;;6.05;2.90;;;;;;;9.49;100.00;100427.94;5087703;28;20032;-77
2024/01/22 07:06:38;;;;;;;9.50;3.30;;;;;;;9.47;100.00;100419.16;5082775;28;20029;-77
2024/01/22 07:09:03;;;;;;;8.07;3.20;;;;;;;9.46;100.00;100409.47;5086510;28;20035;-72
2024/01/22 07:11:30;;;;;;;8.80;3.22;;;;;;;9.49;100.00;100414.75;5083419;28;20052;-77
2024/01/22 07:13:55;;;;;;;11.45;3.10;;;;;;;9.45;100.00;100404.19;5085326;28;20045;-74
2024/01/22 07:16:20;;;;;;;11.13;3.40;;;;;;;9.47;100.00;100390.13;5085878;28;20127;-75
2024/01/22 07:18:46;;;;;;;9.02;3.25;;;;;;;9.47;100.00;100407.72;5084362;28;20056;-73
2024/01/22 07:21:11;;;;;;;12.40;3.30;;;;;;;9.50;100.00;100419.16;5086824;28;20031;-72
2024/01/22 07:23:36;;;;;;;10.77;3.30;;;;;;;9.54;100.00;100404.22;5083304;28;20525;-72
2024/01/22 07:26:02;;;;;;;13.13;3.65;;;;;;;9.55;100.00;100417.41;5086205;28;20032;-78
2024/01/22 07:28:27;;;;;;;14.73;3.70;;;;;;;9.54;100.00;100412.16;5084413;28;20119;-77
2024/01/22 07:30:52;;;;;;;14.40;3.60;;;;;;;9.57;100.00;100417.41;5087266;28;20035;-78
2024/01/22 07:33:18;;;;;;;14.65;3.13;;;;;;;9.62;100.00;100405.09;5083867;28;20074;-77
2024/01/22 07:35:43;;;;;;;15.43;3.40;;;;;;;9.61;100.00;100416.56;5086398;28;20035;-79
2024/01/22 07:38:08;;;;;;;13.68;3.22;;;;;;;9.58;100.00;100417.44;5082997;28;20383;-76
2024/01/22 07:40:34;;;;;;;12.73;3.40;;;;;;;9.58;100.00;100411.25;5086016;28;20032;-74
2024/01/22 07:42:59;;;;;;;11.52;2.90;;;;;;;9.57;100.00;100420.06;5082560;28;20050;-77
2024/01/22 07:45:24;;;;;;;18.05;3.40;;;;;;;9.58;100.00;100429.72;5083635;28;20029;-76
2024/01/22 07:47:50;;;;;;;16.20;3.30;;;;;;;9.55;100.00;100401.59;5085515;28;20036;-77
2024/01/22 07:50:16;;;;;;;15.15;3.30;;;;;;;9.58;100.00;100420.06;5083135;28;20021;-73
2024/01/22 07:52:42;;;;;;;16.52;3.38;;;;;;;9.53;100.00;100426.22;5086652;28;20031;-74
2024/01/22 07:55:08;;;;;;;20.58;3.78;;;;;;;9.51;100.00;100425.31;5078731;28;20442;-75
2024/01/22 07:57:34;;;;;;;17.02;3.53;;;;;;;9.50;100.00;100436.75;5086008;28;20348;-76
2024/01/22 08:00:00;;;;;;;19.67;3.95;;;;;;;9.50;100.00;100429.72;5084076;28;20038;-76
2024/01/22 08:02:25;;;;;;;19.75;4.05;;;;;;;9.40;100.00;100418.25;5066096;28;20102;-74
2024/01/22 08:04:51;;;;;;;19.83;4.18;;;;;;;9.41;100.00;100421.78;5084785;28;20034;-75
2024/01/22 08:07:19;;;;;;;20.50;4.07;;;;;;;9.38;100.00;100413.88;5083324;28;20060;-77
2024/01/22 08:09:48;;;;;;;20.90;4.30;;;;;;;9.37;100.00;100426.16;5085605;28;20028;-78
2024/01/22 08:12:13;;;;;;;21.85;4.72;;;;;;;9.38;100.00;100401.56;5082447;28;20048;-78
2024/01/22 08:14:40;;;;;;;23.38;4.97;;;;;;;9.39;100.00;100429.69;5086450;28;20044;-81
2024/01/22 08:17:05;;;;;;;24.63;5.13;;;;;;;9.41;100.00;100420.03;5082779;28;20024;-80
2024/01/22 08:19:33;;;;;;;25.17;4.82;;;;;;;9.46;100.00;100449.03;5084919;28;20391;-79
2024/01/22 08:21:59;;;;;;;26.98;5.50;;;;;;;9.42;100.00;100434.97;5083020;28;20085;-75
2024/01/22 08:24:25;;;;;;;28.65;5.72;;;;;;;9.40;100.00;100447.25;5084136;28;20082;-86
2024/01/22 08:26:50;;;;;;;26.38;5.40;;;;;;;9.42;100.00;100453.44;5085015;28;20036;-77
2024/01/22 08:29:16;;;;;;;27.08;5.82;;;;;;;9.37;100.00;100446.38;5083027;28;20085;-83
2024/01/22 08:31:42;;;;;;;27.95;5.57;;;;;;;9.39;100.00;100476.28;5086121;28;20120;-85
2024/01/22 08:34:07;;;;;;;25.02;4.80;;;;;;;9.39;100.00;100463.09;5083285;28;20052;-86
2024/01/22 08:36:33;;;;;;;26.08;5.30;;;;;;;9.35;100.00;100464.84;5085033;28;20032;-82
2024/01/22 08:38:58;;;;;;;25.40;5.00;;;;;;;9.35;100.00;100454.31;5083657;28;20028;-80
2024/01/22 08:41:27;;;;;;;24.92;4.53;;;;;;;9.35;100.00;100458.69;5083789;28;20024;-84
2024/01/22 08:43:54;;;;;;;25.33;4.80;;;;;;;9.33;100.00;100490.31;5085039;28;20031;-85
2024/01/22 08:46:19;;;;;;;24.40;4.95;;;;;;;9.29;100.00;100467.47;5083257;28;20498;-73
2024/01/22 08:48:45;;;;;;;26.25;5.07;;;;;;;9.23;100.00;100478.88;5086213;28;20032;-74
2024/01/22 08:51:10;;;;;;;26.88;5.47;;;;;;;9.24;100.00;100475.34;5085049;28;20032;-85
2024/01/22 08:53:35;;;;;;;26.52;4.90;;;;;;;9.25;100.00;100494.72;5082781;28;20616;-85
2024/01/22 08:56:01;;;;;;;28.80;5.43;;;;;;;9.23;100.00;100483.25;5084671;28;20433;-77
2024/01/22 08:58:26;;;;;;;25.77;5.63;;;;;;;9.30;100.00;100477.13;5083522;28;20032;-76
2024/01/22 09:00:51;;;;;;;26.48;5.22;;;;;;;9.25;100.00;100465.69;5082868;28;20471;-80
2024/01/22 09:03:18;;;;;;;25.88;5.18;;;;;;;9.25;100.00;100470.97;5081685;28;20472;-82
2024/01/22 09:05:44;;;;;;;23.42;4.85;;;;;;;9.25;100.00;100477.13;5084479;28;20164;-86
2024/01/22 09:08:09;;;;;;;24.92;5.15;;;;;;;9.22;100.00;100461.28;5081970;28;20076;-82
2024/01/22 09:10:34;;;;;;;23.77;5.10;;;;;;;9.25;100.00;100489.44;5085053;28;20047;-80
2024/01/22 09:13:00;;;;;;;28.92;5.90;;;;;;;9.23;100.00;100472.72;5081917;28;20470;-83
2024/01/22 09:15:25;;;;;;;26.30;5.72;;;;;;;9.18;100.00;100461.28;5085721;28;20040;-84
2024/01/22 09:17:51;;;;;;;25.27;5.00;;;;;;;9.15;100.00;100471.81;5082540;28;20479;-80
2024/01/22 09:20:16;;;;;;;25.52;5.30;;;;;;;9.15;100.00;100458.63;5084120;28;20078;-82
2024/01/22 09:22:41;;;;;;;28.33;5.80;;;;;;;9.14;100.00;100459.50;5081837;28;20117;-80
2024/01/22 09:25:08;;;;;;;26.52;5.20;;;;;;;9.17;100.00;100456.88;5085634;28;20382;-82
2024/01/22 09:27:33;;;;;;;24.08;4.82;;;;;;;9.18;100.00;100453.38;5080727;28;20038;-73
2024/01/22 09:29:58;;;;;;;28.45;5.50;;;;;;;9.17;100.00;100456.88;5083376;28;20112;-78
2024/01/22 09:32:25;;;;;;;26.17;4.97;;;;;;;9.25;100.00;100463.06;5081864;28;20032;-77
2024/01/22 09:34:51;;;;;;;25.00;5.30;;;;;;;9.18;100.00;100456.88;5082208;28;20036;-78
2024/01/22 09:37:17;;;;;;;26.63;5.32;;;;;;;9.18;100.00;100458.63;5084246;28;20383;-74
2024/01/22 09:39:46;;;;;;;23.13;5.10;;;;;;;9.22;100.00;100470.97;5081502;28;20196;-78
2024/01/22 09:42:14;;;;;;;25.02;4.65;;;;;;;9.23;100.00;100459.53;5077241;28;20029;-78
2024/01/22 09:44:44;;;;;;;23.92;4.50;;;;;;;9.28;100.00;100480.66;5077333;28;20029;-78
2024/01/22 09:47:10;;;;;;;21.58;4.57;;;;;;;9.25;100.00;100478.88;5077290;28;20043;-76
2024/01/22 09:49:36;;;;;;;24.42;4.40;;;;;;;9.30;100.00;100478.91;5083890;28;20024;-78
2024/01/22 09:52:03;;;;;;;22.52;4.25;;;;;;;9.30;100.00;100485.03;5082167;28;20028;-79
2024/01/22 09:54:30;;;;;;;21.92;4.25;;;;;;;9.34;100.00;100491.22;5081617;28;20033;-78
2024/01/22 09:56:57;;;;;;;22.65;4.63;;;;;;;9.32;100.00;100498.25;5082339;28;20024;-78
2024/01/22 09:59:25;;;;;;;20.02;3.80;;;;;;;9.34;100.00;100518.47;5081842;28;20028;-79
2024/01/22 10:01:53;;;;;;;21.70;4.10;;;;;;;9.31;100.00;100513.19;5083339;28;20026;-79
2024/01/22 10:04:19;;;;;;;22.33;4.00;;;;;;;9.35;100.00;100506.16;5081357;28;20048;-87
2024/01/22 10:06:46;;;;;;;21.02;3.80;;;;;;;9.35;100.00;100516.72;5084021;28;20060;-87
2024/01/22 10:09:17;;;;;;;20.98;4.22;;;;;;;9.36;100.00;100513.22;5080774;28;20082;-84
2024/01/22 10:11:46;;;;;;;21.40;4.10;;;;;;;9.37;100.00;100529.03;5076766;28;20462;-86
2024/01/22 10:14:12;;;;;;;20.77;3.92;;;;;;;9.37;100.00;100529.03;5076860;28;20398;-79
2024/01/22 10:16:37;;;;;;;21.23;3.90;;;;;;;9.35;100.00;100578.28;5083913;28;20028;-86
2024/01/22 10:19:08;;;;;;;19.92;3.50;;;;;;;9.00;100.00;100560.50;5081204;28;20086;-75
2024/01/22 10:21:38;;;;;;;22.27;3.58;;;;;;;8.47;100.00;100558.34;5081574;28;20507;-85
2024/01/22 10:24:08;;;;;;;20.67;3.50;;;;;;;8.33;100.00;100603.88;5080875;28;20039;-85
2024/01/22 10:26:35;;;;;;;23.42;3.90;;;;;;;8.09;100.00;100624.69;5083132;28;20052;-82
2024/01/22 10:29:22;;;;;;;20.63;3.55;;;;;;;8.10;100.00;100606.25;5085437;28;20052;-82
2024/01/22 10:31:59;;;;;;;22.20;4.05;;;;;;;8.08;100.00;100597.47;5081702;28;20028;-83
2024/01/22 10:34:45;;;;;;;26.10;4.50;;;;;;;7.94;100.00;100599.06;5085859;28;20463;-83
2024/01/22 10:37:12;;;;;;;26.92;5.68;;;;;;;7.59;100.00;100597.78;5079949;28;20024;-74
2024/01/22 10:39:41;;;;;;;30.50;5.22;;;;;;;7.66;100.00;100607.50;5085683;28;20031;-74
2024/01/22 10:42:20;;;;;;;28.15;5.90;;;;;;;7.68;100.00;100608.41;5084310;28;20029;-83
2024/01/22 10:44:47;;;;;;;30.25;6.07;;;;;;;7.59;100.00;100612.69;5080621;28;20033;-85
2024/01/22 10:47:14;;;;;;;28.70;5.78;;;;;;;7.68;100.00;100600.50;5087206;28;20031;-83
2024/01/22 10:49:42;;;;;;;32.00;6.18;;;;;;;7.75;100.00;100616.41;5083793;28;20067;-80
2024/01/22 10:52:07;;;;;;;32.47;6.30;;;;;;;7.66;100.00;100610.16;5085635;28;20024;-80
2024/01/22 10:54:34;;;;;;;32.50;6.85;;;;;;;7.66;100.00;100609.28;5066392;28;20035;-80
2024/01/22 10:57:03;;;;;;;33.05;6.95;;;;;;;7.71;100.00;100611.97;5085661;28;20025;-80
2024/01/22 10:59:30;;;;;;;34.35;6.90;;;;;;;7.83;100.00;100604.19;5083782;28;20028;-81
2024/01/22 11:01:57;;;;;;;34.55;6.88;;;;;;;7.81;100.00;100603.31;5083469;28;20035;-79
2024/01/22 11:04:29;;;;;;;35.47;8.23;;;;;;;7.90;100.00;100613.94;5085678;28;20032;-75
2024/01/22 11:07:01;;;;;;;34.35;7.10;;;;;;;7.89;100.00;100620.06;5084714;28;20036;-81
2024/01/22 11:09:33;;;;;;;32.55;7.15;;;;;;;7.98;100.00;100619.28;5085014;28;20050;-81
2024/01/22 11:12:12;;;;;;;33.88;7.72;;;;;;;8.08;100.00;100628.16;5084891;28;20048;-82
2024/01/22 11:14:40;;;;;;;33.80;7.32;;;;;;;7.97;100.00;100634.19;5083336;28;20107;-80
2024/01/22 11:17:09;;;;;;;29.80;6.78;;;;;;;8.06;100.00;100651.84;5086385;28;20040;-82